sensor_id;sensor_type;location;lat;lon;timestamp;P1;durP1;ratioP1;P2;durP2;ratioP2
12171;SDS011;6149;52.418;13.668;2023-11-21T00:00:38;14.73;;;9.70;;
12171;SDS011;6149;52.418;13.668;2023-11-21T00:03:05;12.07;;;8.40;;
12171;SDS011;6149;52.418;13.668;2023-11-21T00:05:31;12.67;;;8.80;;
12171;SDS011;6149;52.418;13.668;2023-11-21T00:07:59;10.73;;;8.20;;
12171;SDS011;6149;52.418;13.668;2023-11-21T00:10:26;12.67;;;7.63;;
12171;SDS011;6149;52.418;13.668;2023-11-21T00:12:53;11.83;;;8.80;;
12171;SDS011;6149;52.418;13.668;2023-11-21T00:15:20;11.53;;;8.23;;
12171;SDS011;6149;52.418;13.668;2023-11-21T00:17:47;10.07;;;8.13;;
12171;SDS011;6149;52.418;13.668;2023-11-21T00:20:14;11.00;;;7.43;;
12171;SDS011;6149;52.418;13.668;2023-11-21T00:22:41;12.27;;;7.97;;
12171;SDS011;6149;52.418;13.668;2023-11-21T00:25:09;12.40;;;9.17;;
12171;SDS011;6149;52.418;13.668;2023-11-21T00:27:36;14.73;;;8.60;;
12171;SDS011;6149;52.418;13.668;2023-11-21T00:30:03;13.97;;;9.57;;
12171;SDS011;6149;52.418;13.668;2023-11-21T00:32:31;13.53;;;8.97;;
12171;SDS011;6149;52.418;13.668;2023-11-21T00:34:59;13.87;;;10.13;;
12171;SDS011;6149;52.418;13.668;2023-11-21T00:37:25;14.27;;;9.17;;
12171;SDS011;6149;52.418;13.668;2023-11-21T00:39:52;15.13;;;9.97;;
12171;SDS011;6149;52.418;13.668;2023-11-21T00:42:20;15.30;;;9.17;;
12171;SDS011;6149;52.418;13.668;2023-11-21T00:44:47;17.30;;;10.47;;
12171;SDS011;6149;52.418;13.668;2023-11-21T00:47:14;16.53;;;10.00;;
12171;SDS011;6149;52.418;13.668;2023-11-21T00:49:41;14.83;;;10.13;;
12171;SDS011;6149;52.418;13.668;2023-11-21T00:52:08;19.97;;;10.80;;
12171;SDS011;6149;52.418;13.668;2023-11-21T00:54:35;20.17;;;12.50;;
12171;SDS011;6149;52.418;13.668;2023-11-21T00:57:01;21.37;;;13.23;;
12171;SDS011;6149;52.418;13.668;2023-11-21T00:59:30;21.40;;;13.47;;
12171;SDS011;6149;52.418;13.668;2023-11-21T01:01:59;22.07;;;13.17;;
12171;SDS011;6149;52.418;13.668;2023-11-21T01:04:27;29.13;;;15.17;;
12171;SDS011;6149;52.418;13.668;2023-11-21T01:06:53;31.90;;;16.00;;
12171;SDS011;6149;52.418;13.668;2023-11-21T01:09:20;31.90;;;16.67;;
12171;SDS011;6149;52.418;13.668;2023-11-21T01:11:46;31.97;;;17.13;;
12171;SDS011;6149;52.418;13.668;2023-11-21T01:14:13;36.30;;;19.03;;
12171;SDS011;6149;52.418;13.668;2023-11-21T01:16:41;37.00;;;18.33;;
12171;SDS011;6149;52.418;13.668;2023-11-21T01:19:08;35.40;;;18.27;;
12171;SDS011;6149;52.418;13.668;2023-11-21T01:21:35;34.27;;;18.77;;
12171;SDS011;6149;52.418;13.668;2023-11-21T01:24:02;45.67;;;20.97;;
12171;SDS011;6149;52.418;13.668;2023-11-21T01:26:30;40.57;;;21.47;;
12171;SDS011;6149;52.418;13.668;2023-11-21T01:28:56;43.33;;;21.87;;
12171;SDS011;6149;52.418;13.668;2023-11-21T01:31:24;41.03;;;21.73;;
12171;SDS011;6149;52.418;13.668;2023-11-21T01:33:55;44.47;;;21.73;;
12171;SDS011;6149;52.418;13.668;2023-11-21T01:36:22;47.20;;;22.83;;
12171;SDS011;6149;52.418;13.668;2023-11-21T01:38:48;42.00;;;21.53;;
12171;SDS011;6149;52.418;13.668;2023-11-21T01:41:15;48.53;;;22.70;;
12171;SDS011;6149;52.418;13.668;2023-11-21T01:43:42;49.63;;;23.47;;
12171;SDS011;6149;52.418;13.668;2023-11-21T01:46:08;52.70;;;23.83;;
12171;SDS011;6149;52.418;13.668;2023-11-21T01:48:36;47.13;;;23.07;;
12171;SDS011;6149;52.418;13.668;2023-11-21T01:51:05;44.87;;;22.60;;
12171;SDS011;6149;52.418;13.668;2023-11-21T01:53:33;45.23;;;23.93;;
12171;SDS011;6149;52.418;13.668;2023-11-21T01:56:01;44.47;;;22.87;;
12171;SDS011;6149;52.418;13.668;2023-11-21T01:58:30;50.43;;;22.57;;
12171;SDS011;6149;52.418;13.668;2023-11-21T02:00:57;47.83;;;23.77;;
12171;SDS011;6149;52.418;13.668;2023-11-21T02:03:24;49.27;;;23.27;;
12171;SDS011;6149;52.418;13.668;2023-11-21T02:05:51;42.17;;;22.13;;
12171;SDS011;6149;52.418;13.668;2023-11-21T02:08:19;42.77;;;20.50;;
12171;SDS011;6149;52.418;13.668;2023-11-21T02:10:46;39.17;;;20.87;;
12171;SDS011;6149;52.418;13.668;2023-11-21T02:13:13;37.10;;;20.67;;
12171;SDS011;6149;52.418;13.668;2023-11-21T02:15:41;39.27;;;20.60;;
12171;SDS011;6149;52.418;13.668;2023-11-21T02:18:08;31.27;;;19.83;;
12171;SDS011;6149;52.418;13.668;2023-11-21T02:20:36;28.40;;;17.70;;
12171;SDS011;6149;52.418;13.668;2023-11-21T02:23:05;31.80;;;18.03;;
12171;SDS011;6149;52.418;13.668;2023-11-21T02:25:33;28.63;;;17.20;;
12171;SDS011;6149;52.418;13.668;2023-11-21T02:28:02;28.87;;;17.07;;
12171;SDS011;6149;52.418;13.668;2023-11-21T02:30:31;30.77;;;17.07;;
12171;SDS011;6149;52.418;13.668;2023-11-21T02:32:58;33.10;;;16.90;;
12171;SDS011;6149;52.418;13.668;2023-11-21T02:35:25;32.40;;;15.77;;
12171;SDS011;6149;52.418;13.668;2023-11-21T02:37:52;30.10;;;17.00;;
12171;SDS011;6149;52.418;13.668;2023-11-21T02:40:21;31.03;;;17.33;;
12171;SDS011;6149;52.418;13.668;2023-11-21T02:42:49;30.17;;;17.43;;
12171;SDS011;6149;52.418;13.668;2023-11-21T02:45:17;34.70;;;16.60;;
12171;SDS011;6149;52.418;13.668;2023-11-21T02:47:46;32.17;;;16.60;;
12171;SDS011;6149;52.418;13.668;2023-11-21T02:50:14;28.37;;;15.67;;
12171;SDS011;6149;52.418;13.668;2023-11-21T02:52:41;33.00;;;16.70;;
12171;SDS011;6149;52.418;13.668;2023-11-21T02:55:08;32.53;;;17.23;;
12171;SDS011;6149;52.418;13.668;2023-11-21T02:57:36;38.10;;;17.00;;
12171;SDS011;6149;52.418;13.668;2023-11-21T03:00:03;36.60;;;18.10;;
12171;SDS011;6149;52.418;13.668;2023-11-21T03:02:32;37.33;;;16.97;;
12171;SDS011;6149;52.418;13.668;2023-11-21T03:05:01;38.37;;;17.47;;
12171;SDS011;6149;52.418;13.668;2023-11-21T03:07:30;31.93;;;15.77;;
12171;SDS011;6149;52.418;13.668;2023-11-21T03:09:56;31.87;;;16.57;;
12171;SDS011;6149;52.418;13.668;2023-11-21T03:12:23;33.67;;;16.37;;
12171;SDS011;6149;52.418;13.668;2023-11-21T03:14:51;31.33;;;16.13;;
12171;SDS011;6149;52.418;13.668;2023-11-21T03:17:19;29.33;;;15.33;;
12171;SDS011;6149;52.418;13.668;2023-11-21T03:19:46;30.27;;;14.13;;
12171;SDS011;6149;52.418;13.668;2023-11-21T03:22:12;24.83;;;13.93;;
12171;SDS011;6149;52.418;13.668;2023-11-21T03:24:39;26.57;;;14.17;;
12171;SDS011;6149;52.418;13.668;2023-11-21T03:27:06;21.63;;;13.00;;
12171;SDS011;6149;52.418;13.668;2023-11-21T03:29:33;23.73;;;12.77;;
12171;SDS011;6149;52.418;13.668;2023-11-21T03:32:01;21.90;;;13.20;;
12171;SDS011;6149;52.418;13.668;2023-11-21T03:34:27;20.53;;;12.10;;
12171;SDS011;6149;52.418;13.668;2023-11-21T03:36:54;21.97;;;11.50;;
12171;SDS011;6149;52.418;13.668;2023-11-21T03:39:21;18.67;;;11.00;;
12171;SDS011;6149;52.418;13.668;2023-11-21T03:41:48;18.77;;;10.90;;
12171;SDS011;6149;52.418;13.668;2023-11-21T03:44:16;16.63;;;10.80;;
12171;SDS011;6149;52.418;13.668;2023-11-21T03:46:43;17.60;;;10.87;;
12171;SDS011;6149;52.418;13.668;2023-11-21T03:49:11;15.67;;;9.87;;
12171;SDS011;6149;52.418;13.668;2023-11-21T03:51:38;17.27;;;11.03;;
12171;SDS011;6149;52.418;13.668;2023-11-21T03:54:05;15.10;;;10.43;;
12171;SDS011;6149;52.418;13.668;2023-11-21T03:56:32;16.03;;;10.50;;
12171;SDS011;6149;52.418;13.668;2023-11-21T03:58:58;15.17;;;10.70;;
12171;SDS011;6149;52.418;13.668;2023-11-21T04:01:25;13.33;;;9.90;;
12171;SDS011;6149;52.418;13.668;2023-11-21T04:03:52;17.20;;;10.10;;
12171;SDS011;6149;52.418;13.668;2023-11-21T04:06:19;13.33;;;9.63;;
12171;SDS011;6149;52.418;13.668;2023-11-21T04:08:46;13.67;;;9.60;;
12171;SDS011;6149;52.418;13.668;2023-11-21T04:11:13;19.60;;;9.63;;
12171;SDS011;6149;52.418;13.668;2023-11-21T04:13:38;14.90;;;9.97;;
12171;SDS011;6149;52.418;13.668;2023-11-21T04:16:06;13.83;;;9.67;;
12171;SDS011;6149;52.418;13.668;2023-11-21T04:18:33;13.13;;;9.13;;
12171;SDS011;6149;52.418;13.668;2023-11-21T04:21:00;14.83;;;9.93;;
12171;SDS011;6149;52.418;13.668;2023-11-21T04:23:28;13.13;;;8.70;;
12171;SDS011;6149;52.418;13.668;2023-11-21T04:25:56;15.77;;;9.17;;
12171;SDS011;6149;52.418;13.668;2023-11-21T04:28:24;15.00;;;9.53;;
12171;SDS011;6149;52.418;13.668;2023-11-21T04:30:50;14.10;;;8.87;;
12171;SDS011;6149;52.418;13.668;2023-11-21T04:33:17;16.10;;;9.43;;
12171;SDS011;6149;52.418;13.668;2023-11-21T04:35:43;13.47;;;8.60;;
12171;SDS011;6149;52.418;13.668;2023-11-21T04:38:10;13.27;;;8.73;;
12171;SDS011;6149;52.418;13.668;2023-11-21T04:40:38;11.00;;;8.57;;
12171;SDS011;6149;52.418;13.668;2023-11-21T04:43:05;11.60;;;8.50;;
12171;SDS011;6149;52.418;13.668;2023-11-21T04:45:31;15.57;;;8.50;;
12171;SDS011;6149;52.418;13.668;2023-11-21T04:47:58;15.10;;;8.77;;
12171;SDS011;6149;52.418;13.668;2023-11-21T04:50:25;12.07;;;7.80;;
12171;SDS011;6149;52.418;13.668;2023-11-21T04:52:52;10.80;;;7.07;;
12171;SDS011;6149;52.418;13.668;2023-11-21T04:55:18;10.13;;;7.40;;
12171;SDS011;6149;52.418;13.668;2023-11-21T04:57:46;9.87;;;6.80;;
12171;SDS011;6149;52.418;13.668;2023-11-21T05:00:13;10.63;;;7.17;;
12171;SDS011;6149;52.418;13.668;2023-11-21T05:02:42;14.00;;;7.97;;
12171;SDS011;6149;52.418;13.668;2023-11-21T05:05:09;9.33;;;7.10;;
12171;SDS011;6149;52.418;13.668;2023-11-21T05:07:38;9.97;;;6.63;;
12171;SDS011;6149;52.418;13.668;2023-11-21T05:10:05;10.10;;;6.53;;
12171;SDS011;6149;52.418;13.668;2023-11-21T05:12:36;8.73;;;6.37;;
12171;SDS011;6149;52.418;13.668;2023-11-21T05:15:05;9.10;;;6.63;;
12171;SDS011;6149;52.418;13.668;2023-11-21T05:17:34;9.23;;;6.33;;
12171;SDS011;6149;52.418;13.668;2023-11-21T05:20:02;9.67;;;6.70;;
12171;SDS011;6149;52.418;13.668;2023-11-21T05:22:33;10.30;;;6.20;;
12171;SDS011;6149;52.418;13.668;2023-11-21T05:25:00;9.10;;;6.10;;
12171;SDS011;6149;52.418;13.668;2023-11-21T05:27:28;8.20;;;5.90;;
12171;SDS011;6149;52.418;13.668;2023-11-21T05:29:55;8.27;;;5.57;;
12171;SDS011;6149;52.418;13.668;2023-11-21T05:32:23;8.63;;;5.87;;
12171;SDS011;6149;52.418;13.668;2023-11-21T05:34:50;11.13;;;6.30;;
12171;SDS011;6149;52.418;13.668;2023-11-21T05:37:16;8.47;;;6.23;;
12171;SDS011;6149;52.418;13.668;2023-11-21T05:39:43;9.40;;;6.00;;
12171;SDS011;6149;52.418;13.668;2023-11-21T05:42:10;13.20;;;6.63;;
12171;SDS011;6149;52.418;13.668;2023-11-21T05:44:36;10.70;;;6.13;;
12171;SDS011;6149;52.418;13.668;2023-11-21T05:47:03;10.10;;;6.13;;
12171;SDS011;6149;52.418;13.668;2023-11-21T05:49:33;9.90;;;6.47;;
12171;SDS011;6149;52.418;13.668;2023-11-21T05:52:03;9.10;;;6.40;;
12171;SDS011;6149;52.418;13.668;2023-11-21T05:54:30;8.93;;;6.63;;
12171;SDS011;6149;52.418;13.668;2023-11-21T05:56:57;10.33;;;6.70;;
12171;SDS011;6149;52.418;13.668;2023-11-21T05:59:24;8.63;;;6.20;;
12171;SDS011;6149;52.418;13.668;2023-11-21T06:01:50;9.87;;;6.60;;
12171;SDS011;6149;52.418;13.668;2023-11-21T06:04:17;10.23;;;6.70;;
12171;SDS011;6149;52.418;13.668;2023-11-21T06:06:51;10.77;;;6.87;;
12171;SDS011;6149;52.418;13.668;2023-11-21T06:09:18;9.80;;;6.57;;
12171;SDS011;6149;52.418;13.668;2023-11-21T06:11:45;8.83;;;6.57;;
12171;SDS011;6149;52.418;13.668;2023-11-21T06:14:12;9.23;;;6.50;;
12171;SDS011;6149;52.418;13.668;2023-11-21T06:16:38;8.80;;;6.20;;
12171;SDS011;6149;52.418;13.668;2023-11-21T06:19:05;8.40;;;6.87;;
12171;SDS011;6149;52.418;13.668;2023-11-21T06:21:32;13.00;;;7.37;;
12171;SDS011;6149;52.418;13.668;2023-11-21T06:24:01;9.70;;;7.03;;
12171;SDS011;6149;52.418;13.668;2023-11-21T06:26:28;9.83;;;6.97;;
12171;SDS011;6149;52.418;13.668;2023-11-21T06:28:57;11.90;;;7.37;;
12171;SDS011;6149;52.418;13.668;2023-11-21T06:31:23;12.37;;;7.63;;
12171;SDS011;6149;52.418;13.668;2023-11-21T06:33:50;10.83;;;8.13;;
12171;SDS011;6149;52.418;13.668;2023-11-21T06:36:18;11.90;;;7.30;;
12171;SDS011;6149;52.418;13.668;2023-11-21T06:38:45;10.83;;;7.37;;
12171;SDS011;6149;52.418;13.668;2023-11-21T06:41:13;11.07;;;7.73;;
12171;SDS011;6149;52.418;13.668;2023-11-21T06:43:40;11.70;;;7.90;;
12171;SDS011;6149;52.418;13.668;2023-11-21T06:46:10;14.23;;;8.27;;
12171;SDS011;6149;52.418;13.668;2023-11-21T06:48:42;12.20;;;7.50;;
12171;SDS011;6149;52.418;13.668;2023-11-21T06:51:09;11.03;;;7.73;;
12171;SDS011;6149;52.418;13.668;2023-11-21T06:53:36;10.30;;;7.20;;
12171;SDS011;6149;52.418;13.668;2023-11-21T06:56:03;9.43;;;6.87;;
12171;SDS011;6149;52.418;13.668;2023-11-21T06:58:33;11.43;;;7.30;;
12171;SDS011;6149;52.418;13.668;2023-11-21T07:01:00;11.20;;;6.87;;
12171;SDS011;6149;52.418;13.668;2023-11-21T07:03:27;11.60;;;7.70;;
12171;SDS011;6149;52.418;13.668;2023-11-21T07:05:58;10.37;;;7.20;;
12171;SDS011;6149;52.418;13.668;2023-11-21T07:08:24;11.97;;;7.43;;
12171;SDS011;6149;52.418;13.668;2023-11-21T07:10:52;8.40;;;6.40;;
12171;SDS011;6149;52.418;13.668;2023-11-21T07:13:45;10.00;;;6.67;;
12171;SDS011;6149;52.418;13.668;2023-11-21T07:16:12;10.67;;;6.60;;
12171;SDS011;6149;52.418;13.668;2023-11-21T07:18:40;10.87;;;6.73;;
12171;SDS011;6149;52.418;13.668;2023-11-21T07:21:06;10.63;;;7.50;;
12171;SDS011;6149;52.418;13.668;2023-11-21T07:23:33;9.03;;;6.67;;
12171;SDS011;6149;52.418;13.668;2023-11-21T07:26:02;9.87;;;7.10;;
12171;SDS011;6149;52.418;13.668;2023-11-21T07:28:34;8.50;;;6.00;;
12171;SDS011;6149;52.418;13.668;2023-11-21T07:31:01;10.33;;;6.83;;
12171;SDS011;6149;52.418;13.668;2023-11-21T07:33:28;10.50;;;6.20;;
12171;SDS011;6149;52.418;13.668;2023-11-21T07:35:56;12.47;;;6.60;;
12171;SDS011;6149;52.418;13.668;2023-11-21T07:38:23;10.33;;;6.87;;
12171;SDS011;6149;52.418;13.668;2023-11-21T07:40:49;11.57;;;6.90;;
12171;SDS011;6149;52.418;13.668;2023-11-21T07:43:16;13.77;;;8.33;;
12171;SDS011;6149;52.418;13.668;2023-11-21T07:45:44;17.57;;;9.73;;
12171;SDS011;6149;52.418;13.668;2023-11-21T07:48:12;17.30;;;9.43;;
12171;SDS011;6149;52.418;13.668;2023-11-21T07:50:40;15.33;;;8.70;;
12171;SDS011;6149;52.418;13.668;2023-11-21T07:53:07;14.33;;;8.97;;
12171;SDS011;6149;52.418;13.668;2023-11-21T07:55:33;15.73;;;8.93;;
12171;SDS011;6149;52.418;13.668;2023-11-21T07:58:03;19.63;;;9.43;;
12171;SDS011;6149;52.418;13.668;2023-11-21T08:00:29;17.80;;;8.50;;
12171;SDS011;6149;52.418;13.668;2023-11-21T08:02:57;18.23;;;8.23;;
12171;SDS011;6149;52.418;13.668;2023-11-21T08:05:25;17.37;;;8.90;;
12171;SDS011;6149;52.418;13.668;2023-11-21T08:07:51;17.40;;;9.00;;
12171;SDS011;6149;52.418;13.668;2023-11-21T08:10:18;20.37;;;9.07;;
12171;SDS011;6149;52.418;13.668;2023-11-21T08:12:46;16.37;;;8.80;;
12171;SDS011;6149;52.418;13.668;2023-11-21T08:15:13;16.07;;;8.83;;
12171;SDS011;6149;52.418;13.668;2023-11-21T08:17:40;16.50;;;8.80;;
12171;SDS011;6149;52.418;13.668;2023-11-21T08:20:07;15.50;;;8.20;;
12171;SDS011;6149;52.418;13.668;2023-11-21T08:22:40;14.87;;;8.27;;
12171;SDS011;6149;52.418;13.668;2023-11-21T08:25:07;12.67;;;7.30;;
12171;SDS011;6149;52.418;13.668;2023-11-21T08:27:34;13.93;;;6.80;;
12171;SDS011;6149;52.418;13.668;2023-11-21T08:30:02;14.67;;;6.43;;
12171;SDS011;6149;52.418;13.668;2023-11-21T08:32:30;11.73;;;6.77;;
12171;SDS011;6149;52.418;13.668;2023-11-21T08:34:59;10.07;;;6.30;;
12171;SDS011;6149;52.418;13.668;2023-11-21T08:37:26;9.67;;;6.30;;
12171;SDS011;6149;52.418;13.668;2023-11-21T08:39:58;11.30;;;6.80;;
12171;SDS011;6149;52.418;13.668;2023-11-21T08:42:25;10.67;;;6.30;;
12171;SDS011;6149;52.418;13.668;2023-11-21T08:44:55;10.77;;;6.10;;
12171;SDS011;6149;52.418;13.668;2023-11-21T08:47:24;10.53;;;6.47;;
12171;SDS011;6149;52.418;13.668;2023-11-21T08:49:52;9.73;;;5.83;;
12171;SDS011;6149;52.418;13.668;2023-11-21T08:52:20;9.07;;;6.23;;
12171;SDS011;6149;52.418;13.668;2023-11-21T08:54:49;10.17;;;6.00;;
12171;SDS011;6149;52.418;13.668;2023-11-21T08:57:22;9.43;;;6.30;;
12171;SDS011;6149;52.418;13.668;2023-11-21T08:59:49;10.00;;;5.93;;
12171;SDS011;6149;52.418;13.668;2023-11-21T09:02:22;9.03;;;5.23;;
12171;SDS011;6149;52.418;13.668;2023-11-21T09:04:49;9.37;;;5.60;;
12171;SDS011;6149;52.418;13.668;2023-11-21T09:07:17;7.53;;;4.77;;
12171;SDS011;6149;52.418;13.668;2023-11-21T09:09:47;9.00;;;5.30;;
12171;SDS011;6149;52.418;13.668;2023-11-21T09:12:14;6.77;;;4.50;;
12171;SDS011;6149;52.418;13.668;2023-11-21T09:14:42;7.33;;;4.93;;
12171;SDS011;6149;52.418;13.668;2023-11-21T09:17:09;7.00;;;4.63;;
12171;SDS011;6149;52.418;13.668;2023-11-21T09:19:38;5.73;;;4.33;;
12171;SDS011;6149;52.418;13.668;2023-11-21T09:22:05;6.17;;;4.30;;
12171;SDS011;6149;52.418;13.668;2023-11-21T09:24:32;5.13;;;3.87;;
12171;SDS011;6149;52.418;13.668;2023-11-21T09:27:01;5.97;;;4.00;;
12171;SDS011;6149;52.418;13.668;2023-11-21T09:29:27;5.17;;;3.63;;
12171;SDS011;6149;52.418;13.668;2023-11-21T09:31:55;3.97;;;3.50;;
12171;SDS011;6149;52.418;13.668;2023-11-21T09:34:25;6.83;;;3.20;;
12171;SDS011;6149;52.418;13.668;2023-11-21T09:36:52;4.10;;;3.47;;
12171;SDS011;6149;52.418;13.668;2023-11-21T09:39:20;5.40;;;3.50;;
12171;SDS011;6149;52.418;13.668;2023-11-21T09:41:49;5.20;;;3.40;;
12171;SDS011;6149;52.418;13.668;2023-11-21T09:44:22;4.90;;;3.27;;
12171;SDS011;6149;52.418;13.668;2023-11-21T09:47:00;4.07;;;3.27;;
12171;SDS011;6149;52.418;13.668;2023-11-21T09:49:28;4.40;;;3.37;;
12171;SDS011;6149;52.418;13.668;2023-11-21T09:52:00;4.87;;;3.20;;
12171;SDS011;6149;52.418;13.668;2023-11-21T09:54:29;4.43;;;3.17;;
12171;SDS011;6149;52.418;13.668;2023-11-21T09:56:59;5.10;;;3.40;;
12171;SDS011;6149;52.418;13.668;2023-11-21T09:59:28;3.57;;;3.00;;
12171;SDS011;6149;52.418;13.668;2023-11-21T10:02:12;4.10;;;3.40;;
12171;SDS011;6149;52.418;13.668;2023-11-21T10:04:41;3.53;;;3.23;;
12171;SDS011;6149;52.418;13.668;2023-11-21T10:07:08;4.53;;;2.90;;
12171;SDS011;6149;52.418;13.668;2023-11-21T10:09:35;4.57;;;2.67;;
12171;SDS011;6149;52.418;13.668;2023-11-21T10:12:04;2.77;;;2.13;;
12171;SDS011;6149;52.418;13.668;2023-11-21T10:14:33;2.23;;;2.00;;
12171;SDS011;6149;52.418;13.668;2023-11-21T10:17:03;2.70;;;2.23;;
12171;SDS011;6149;52.418;13.668;2023-11-21T10:19:34;3.07;;;2.30;;
12171;SDS011;6149;52.418;13.668;2023-11-21T10:22:03;3.10;;;2.50;;
12171;SDS011;6149;52.418;13.668;2023-11-21T10:24:30;5.07;;;2.10;;
12171;SDS011;6149;52.418;13.668;2023-11-21T10:26:58;2.53;;;1.90;;
12171;SDS011;6149;52.418;13.668;2023-11-21T10:29:24;3.43;;;1.90;;
12171;SDS011;6149;52.418;13.668;2023-11-21T10:31:54;2.97;;;1.93;;
12171;SDS011;6149;52.418;13.668;2023-11-21T10:34:24;2.40;;;1.60;;
12171;SDS011;6149;52.418;13.668;2023-11-21T10:36:52;2.23;;;1.60;;
12171;SDS011;6149;52.418;13.668;2023-11-21T10:39:23;2.80;;;1.50;;
12171;SDS011;6149;52.418;13.668;2023-11-21T10:41:54;1.80;;;1.60;;
12171;SDS011;6149;52.418;13.668;2023-11-21T10:44:21;2.60;;;2.00;;
12171;SDS011;6149;52.418;13.668;2023-11-21T10:46:49;2.47;;;1.70;;
12171;SDS011;6149;52.418;13.668;2023-11-21T10:49:16;1.90;;;1.27;;
12171;SDS011;6149;52.418;13.668;2023-11-21T10:51:45;2.37;;;1.60;;
12171;SDS011;6149;52.418;13.668;2023-11-21T10:54:16;3.03;;;2.00;;
12171;SDS011;6149;52.418;13.668;2023-11-21T10:56:49;2.07;;;1.83;;
12171;SDS011;6149;52.418;13.668;2023-11-21T10:59:18;1.87;;;1.60;;
12171;SDS011;6149;52.418;13.668;2023-11-21T11:01:49;2.07;;;1.60;;
12171;SDS011;6149;52.418;13.668;2023-11-21T11:04:18;2.10;;;1.30;;
12171;SDS011;6149;52.418;13.668;2023-11-21T11:06:50;1.77;;;1.43;;
12171;SDS011;6149;52.418;13.668;2023-11-21T11:09:21;2.47;;;1.53;;
12171;SDS011;6149;52.418;13.668;2023-11-21T11:11:48;1.90;;;1.50;;
12171;SDS011;6149;52.418;13.668;2023-11-21T11:14:15;2.33;;;1.90;;
12171;SDS011;6149;52.418;13.668;2023-11-21T11:16:44;2.67;;;1.40;;
12171;SDS011;6149;52.418;13.668;2023-11-21T11:19:11;1.93;;;1.60;;
12171;SDS011;6149;52.418;13.668;2023-11-21T11:21:43;1.80;;;1.43;;
12171;SDS011;6149;52.418;13.668;2023-11-21T11:27:18;2.57;;;1.70;;
12171;SDS011;6149;52.418;13.668;2023-11-21T11:29:59;2.10;;;1.50;;
12171;SDS011;6149;52.418;13.668;2023-11-21T11:32:40;3.27;;;2.00;;
12171;SDS011;6149;52.418;13.668;2023-11-21T11:35:23;4.43;;;2.30;;
12171;SDS011;6149;52.418;13.668;2023-11-21T11:37:56;2.67;;;2.13;;
12171;SDS011;6149;52.418;13.668;2023-11-21T11:40:24;2.40;;;2.10;;
12171;SDS011;6149;52.418;13.668;2023-11-21T11:43:05;2.53;;;1.97;;
12171;SDS011;6149;52.418;13.668;2023-11-21T11:45:33;3.07;;;2.03;;
12171;SDS011;6149;52.418;13.668;2023-11-21T11:48:03;2.13;;;1.60;;
12171;SDS011;6149;52.418;13.668;2023-11-21T11:50:31;3.50;;;2.83;;
12171;SDS011;6149;52.418;13.668;2023-11-21T11:53:11;2.43;;;1.90;;
12171;SDS011;6149;52.418;13.668;2023-11-21T11:55:43;2.53;;;1.93;;
12171;SDS011;6149;52.418;13.668;2023-11-21T11:58:10;2.53;;;1.77;;
12171;SDS011;6149;52.418;13.668;2023-11-21T12:00:37;3.27;;;1.93;;
12171;SDS011;6149;52.418;13.668;2023-11-21T12:03:05;4.27;;;1.80;;
12171;SDS011;6149;52.418;13.668;2023-11-21T12:05:35;3.47;;;2.07;;
12171;SDS011;6149;52.418;13.668;2023-11-21T12:08:05;2.47;;;1.87;;
12171;SDS011;6149;52.418;13.668;2023-11-21T12:10:34;3.10;;;1.60;;
12171;SDS011;6149;52.418;13.668;2023-11-21T12:13:05;4.67;;;2.10;;
12171;SDS011;6149;52.418;13.668;2023-11-21T12:15:35;2.40;;;2.00;;
12171;SDS011;6149;52.418;13.668;2023-11-21T12:18:03;5.53;;;2.13;;
12171;SDS011;6149;52.418;13.668;2023-11-21T12:20:30;3.40;;;1.80;;
12171;SDS011;6149;52.418;13.668;2023-11-21T12:23:05;2.83;;;2.30;;
12171;SDS011;6149;52.418;13.668;2023-11-21T12:25:35;2.77;;;2.10;;
12171;SDS011;6149;52.418;13.668;2023-11-21T12:28:02;2.80;;;2.23;;
12171;SDS011;6149;52.418;13.668;2023-11-21T12:30:31;2.03;;;1.57;;
12171;SDS011;6149;52.418;13.668;2023-11-21T12:33:02;2.97;;;1.70;;
12171;SDS011;6149;52.418;13.668;2023-11-21T12:35:34;2.37;;;1.70;;
12171;SDS011;6149;52.418;13.668;2023-11-21T12:38:01;1.83;;;1.70;;
12171;SDS011;6149;52.418;13.668;2023-11-21T12:40:31;2.33;;;1.70;;
12171;SDS011;6149;52.418;13.668;2023-11-21T12:43:00;2.33;;;1.80;;
12171;SDS011;6149;52.418;13.668;2023-11-21T12:45:29;2.93;;;1.87;;
12171;SDS011;6149;52.418;13.668;2023-11-21T12:47:57;2.47;;;2.07;;
12171;SDS011;6149;52.418;13.668;2023-11-21T12:50:28;3.63;;;2.60;;
12171;SDS011;6149;52.418;13.668;2023-11-21T12:52:59;2.60;;;2.40;;
12171;SDS011;6149;52.418;13.668;2023-11-21T12:55:30;3.40;;;2.33;;
12171;SDS011;6149;52.418;13.668;2023-11-21T12:58:02;3.23;;;2.50;;
12171;SDS011;6149;52.418;13.668;2023-11-21T13:00:34;3.63;;;3.17;;
12171;SDS011;6149;52.418;13.668;2023-11-21T13:03:04;4.43;;;3.30;;
12171;SDS011;6149;52.418;13.668;2023-11-21T13:05:34;4.70;;;3.80;;
12171;SDS011;6149;52.418;13.668;2023-11-21T13:08:04;4.30;;;3.90;;
12171;SDS011;6149;52.418;13.668;2023-11-21T13:10:36;5.10;;;4.60;;
12171;SDS011;6149;52.418;13.668;2023-11-21T13:13:10;7.07;;;5.33;;
12171;SDS011;6149;52.418;13.668;2023-11-21T13:15:47;5.87;;;5.27;;
12171;SDS011;6149;52.418;13.668;2023-11-21T13:18:14;5.87;;;5.23;;
12171;SDS011;6149;52.418;13.668;2023-11-21T13:20:42;7.07;;;5.10;;
12171;SDS011;6149;52.418;13.668;2023-11-21T13:23:10;5.97;;;5.03;;
12171;SDS011;6149;52.418;13.668;2023-11-21T13:25:37;7.37;;;5.17;;
12171;SDS011;6149;52.418;13.668;2023-11-21T13:28:08;6.67;;;5.17;;
12171;SDS011;6149;52.418;13.668;2023-11-21T13:30:36;6.30;;;5.40;;
12171;SDS011;6149;52.418;13.668;2023-11-21T13:33:05;7.17;;;5.60;;
12171;SDS011;6149;52.418;13.668;2023-11-21T13:35:33;5.80;;;5.20;;
12171;SDS011;6149;52.418;13.668;2023-11-21T13:38:04;6.63;;;4.50;;
12171;SDS011;6149;52.418;13.668;2023-11-21T13:40:34;5.13;;;4.33;;
12171;SDS011;6149;52.418;13.668;2023-11-21T13:43:09;5.30;;;4.20;;
12171;SDS011;6149;52.418;13.668;2023-11-21T13:45:36;5.43;;;4.53;;
12171;SDS011;6149;52.418;13.668;2023-11-21T13:48:05;6.73;;;4.90;;
12171;SDS011;6149;52.418;13.668;2023-11-21T13:50:35;5.47;;;4.77;;
12171;SDS011;6149;52.418;13.668;2023-11-21T13:53:02;5.80;;;5.13;;
12171;SDS011;6149;52.418;13.668;2023-11-21T13:55:34;5.30;;;4.80;;
12171;SDS011;6149;52.418;13.668;2023-11-21T13:58:01;5.60;;;4.60;;
12171;SDS011;6149;52.418;13.668;2023-11-21T14:00:30;5.87;;;5.07;;
12171;SDS011;6149;52.418;13.668;2023-11-21T14:03:06;5.60;;;4.80;;
12171;SDS011;6149;52.418;13.668;2023-11-21T14:05:42;6.73;;;5.53;;
12171;SDS011;6149;52.418;13.668;2023-11-21T14:08:11;6.80;;;5.83;;
12171;SDS011;6149;52.418;13.668;2023-11-21T14:10:41;6.27;;;5.23;;
12171;SDS011;6149;52.418;13.668;2023-11-21T14:13:09;6.47;;;5.63;;
12171;SDS011;6149;52.418;13.668;2023-11-21T14:15:38;6.50;;;5.80;;
12171;SDS011;6149;52.418;13.668;2023-11-21T14:18:10;6.80;;;5.43;;
12171;SDS011;6149;52.418;13.668;2023-11-21T14:20:39;8.57;;;6.23;;
12171;SDS011;6149;52.418;13.668;2023-11-21T14:23:06;8.63;;;6.50;;
12171;SDS011;6149;52.418;13.668;2023-11-21T14:25:35;7.37;;;6.00;;
12171;SDS011;6149;52.418;13.668;2023-11-21T14:28:04;7.80;;;7.00;;
12171;SDS011;6149;52.418;13.668;2023-11-21T14:30:32;8.13;;;6.80;;
12171;SDS011;6149;52.418;13.668;2023-11-21T14:33:02;8.70;;;6.93;;
12171;SDS011;6149;52.418;13.668;2023-11-21T14:35:29;9.20;;;7.27;;
12171;SDS011;6149;52.418;13.668;2023-11-21T14:37:57;9.87;;;7.73;;
12171;SDS011;6149;52.418;13.668;2023-11-21T14:40:26;10.57;;;7.93;;
12171;SDS011;6149;52.418;13.668;2023-11-21T14:42:58;10.23;;;8.17;;
12171;SDS011;6149;52.418;13.668;2023-11-21T14:45:26;12.93;;;8.17;;
12171;SDS011;6149;52.418;13.668;2023-11-21T14:47:54;11.70;;;9.20;;